createdAt,value
2023-05-20T00:01:10.591Z,17.60
2023-05-20T00:03:39.140Z,18.90
2023-05-20T00:06:07.861Z,18.30
2023-05-20T00:08:36.349Z,22.30
2023-05-20T00:11:04.615Z,18.30
2023-05-20T00:13:33.092Z,19.30
2023-05-20T00:16:01.495Z,21.60
2023-05-20T00:18:29.974Z,26.80
2023-05-20T00:20:59.145Z,20.40
2023-05-20T00:23:27.317Z,21.20
2023-05-20T00:25:56.281Z,22.60
2023-05-20T00:28:25.707Z,21.70
2023-05-20T00:30:54.987Z,25.10
2023-05-20T00:33:23.278Z,23.30
2023-05-20T00:35:51.562Z,23.40
2023-05-20T00:38:20.041Z,24.60
2023-05-20T00:40:48.521Z,23.90
2023-05-20T00:43:16.699Z,26.40
2023-05-20T00:45:44.996Z,24.40
2023-05-20T00:48:13.768Z,21.40
2023-05-20T00:50:42.124Z,26.40
2023-05-20T00:53:10.616Z,24.10
2023-05-20T00:55:38.820Z,24.50
2023-05-20T00:58:07.050Z,24.40
2023-05-20T01:00:35.941Z,26.00
2023-05-20T01:03:04.330Z,26.30
2023-05-20T01:05:32.878Z,23.40
2023-05-20T01:08:01.691Z,23.10
2023-05-20T01:10:30.878Z,29.70
2023-05-20T01:13:02.962Z,29.60
2023-05-20T01:15:31.937Z,26.60
2023-05-20T01:18:02.724Z,25.40
2023-05-20T01:20:32.801Z,25.30
2023-05-20T01:23:01.689Z,28.60
2023-05-20T01:25:30.149Z,24.30
2023-05-20T01:27:58.428Z,25.20
2023-05-20T01:30:31.230Z,25.20
2023-05-20T01:33:03.041Z,27.00
2023-05-20T01:35:32.374Z,25.70
2023-05-20T01:38:01.775Z,24.20
2023-05-20T01:40:31.063Z,27.60
2023-05-20T01:42:59.550Z,25.30
2023-05-20T01:45:27.815Z,22.70
2023-05-20T01:47:56.242Z,25.70
2023-05-20T01:50:24.687Z,23.80
2023-05-20T01:52:52.966Z,26.70
2023-05-20T01:55:21.227Z,26.50
2023-05-20T01:57:49.601Z,27.20
2023-05-20T02:00:17.874Z,27.10
2023-05-20T02:02:46.246Z,23.60
2023-05-20T02:05:14.937Z,25.60
2023-05-20T02:07:44.748Z,28.00
2023-05-20T02:10:14.048Z,25.80
2023-05-20T02:12:43.044Z,25.40
2023-05-20T02:15:11.417Z,28.00
2023-05-20T02:17:40.013Z,27.80
2023-05-20T02:20:08.919Z,25.70
2023-05-20T02:22:37.168Z,24.60
2023-05-20T02:25:06.169Z,27.90
2023-05-20T02:27:34.444Z,23.80
2023-05-20T02:30:02.820Z,25.00
2023-05-20T02:32:31.184Z,28.70
2023-05-20T02:35:00.997Z,30.40
2023-05-20T02:37:29.881Z,28.00
2023-05-20T02:39:58.266Z,30.50
2023-05-20T02:42:26.641Z,27.00
2023-05-20T02:44:58.711Z,26.90
2023-05-20T02:47:27.633Z,26.20
2023-05-20T02:49:56.173Z,24.00
2023-05-20T02:52:24.347Z,28.50
2023-05-20T02:54:53.239Z,25.90
2023-05-20T02:57:21.615Z,26.70
2023-05-20T02:59:50.013Z,29.20
2023-05-20T03:02:18.463Z,29.50
2023-05-20T03:04:47.645Z,26.70
2023-05-20T03:07:19.888Z,29.10
2023-05-20T03:09:48.418Z,26.00
2023-05-20T03:12:16.800Z,26.90
2023-05-20T03:14:45.778Z,28.90
2023-05-20T03:17:14.887Z,30.90
2023-05-20T03:19:44.378Z,29.90
2023-05-20T03:22:12.960Z,28.60
2023-05-20T03:24:42.666Z,29.50
2023-05-20T03:27:10.842Z,31.00
2023-05-20T03:29:39.521Z,28.10
2023-05-20T03:32:10.649Z,30.50
2023-05-20T03:34:39.608Z,31.00
2023-05-20T03:37:08.440Z,28.10
2023-05-20T03:39:36.932Z,32.20
2023-05-20T03:42:05.818Z,29.60
2023-05-20T03:44:34.600Z,31.40
2023-05-20T03:47:04.052Z,34.60
2023-05-20T03:49:32.676Z,35.50
2023-05-20T03:52:00.953Z,32.00
2023-05-20T03:54:30.358Z,33.70
2023-05-20T03:57:01.298Z,35.20
2023-05-20T03:59:29.873Z,36.30
2023-05-20T04:01:58.159Z,28.70
2023-05-20T04:04:26.635Z,35.90
2023-05-20T04:06:54.898Z,37.00
2023-05-20T04:09:23.588Z,36.10
2023-05-20T04:11:51.763Z,39.90
2023-05-20T04:14:20.033Z,37.40
2023-05-20T04:16:50.445Z,34.90
2023-05-20T04:19:22.019Z,37.50
2023-05-20T04:21:50.798Z,37.20
2023-05-20T04:24:19.179Z,36.90
2023-05-20T04:26:48.495Z,31.40
2023-05-20T04:29:16.854Z,37.40
2023-05-20T04:31:48.089Z,34.80
2023-05-20T04:34:19.852Z,39.40
2023-05-20T04:36:49.264Z,38.30
2023-05-20T04:39:19.369Z,43.20
2023-05-20T04:41:49.591Z,34.10
2023-05-20T04:44:18.174Z,34.60
2023-05-20T04:46:46.447Z,38.50
2023-05-20T04:49:16.154Z,35.30
2023-05-20T04:51:45.148Z,36.70
2023-05-20T04:54:14.137Z,35.20
2023-05-20T04:56:42.309Z,35.50
2023-05-20T04:59:10.891Z,33.60
2023-05-20T05:01:39.208Z,37.80
2023-05-20T05:04:07.896Z,33.50
2023-05-20T05:06:37.149Z,33.90
2023-05-20T05:09:05.833Z,34.50
2023-05-20T05:11:34.315Z,34.60
2023-05-20T05:14:02.591Z,32.70
2023-05-20T05:16:31.614Z,32.20
2023-05-20T05:19:00.113Z,32.20
2023-05-20T05:21:29.562Z,37.10
2023-05-20T05:23:58.543Z,31.50
2023-05-20T05:26:26.937Z,30.60
2023-05-20T05:28:55.924Z,35.50
2023-05-20T05:31:24.199Z,30.70
2023-05-20T05:33:52.480Z,32.10
2023-05-20T05:36:20.855Z,31.00
2023-05-20T05:38:49.128Z,30.70
2023-05-20T05:41:17.296Z,31.20
2023-05-20T05:43:46.089Z,29.40
2023-05-20T05:46:14.898Z,28.50
2023-05-20T05:48:45.498Z,33.30
2023-05-20T05:53:42.557Z,30.90
2023-05-20T05:56:11.348Z,34.30
2023-05-20T05:58:39.828Z,33.80
2023-05-20T06:01:08.414Z,33.10
2023-05-20T06:03:36.853Z,35.00
2023-05-20T06:06:05.366Z,33.50
2023-05-20T06:08:34.972Z,37.10
2023-05-20T06:11:03.244Z,34.70
2023-05-20T06:13:32.447Z,31.00
2023-05-20T06:16:00.833Z,30.10
2023-05-20T06:18:29.095Z,31.90
2023-05-20T06:21:03.520Z,37.00
2023-05-20T06:23:31.996Z,33.40
2023-05-20T06:26:03.764Z,32.20
2023-05-20T06:28:32.125Z,35.40
2023-05-20T06:31:00.825Z,33.80
2023-05-20T06:33:32.564Z,36.10
2023-05-20T06:36:04.425Z,32.70
2023-05-20T06:38:32.802Z,34.80
2023-05-20T06:41:01.497Z,36.30
2023-05-20T06:43:30.479Z,34.90
2023-05-20T06:46:07.175Z,39.20
2023-05-20T06:48:38.808Z,31.50
2023-05-20T06:51:11.610Z,31.50
2023-05-20T06:53:40.492Z,34.60
2023-05-20T06:56:08.954Z,33.20
2023-05-20T06:58:37.226Z,29.30
2023-05-20T07:01:06.020Z,35.40
2023-05-20T07:03:34.718Z,30.30
2023-05-20T07:06:03.488Z,32.70
2023-05-20T07:08:32.474Z,32.80
2023-05-20T07:11:00.962Z,27.80
2023-05-20T07:13:31.378Z,26.40
2023-05-20T07:16:00.220Z,29.00
2023-05-20T07:18:29.054Z,29.30
2023-05-20T07:20:58.458Z,29.40
2023-05-20T07:23:49.770Z,27.50
2023-05-20T07:26:18.657Z,27.20
2023-05-20T07:28:47.443Z,27.00
2023-05-20T07:31:17.311Z,26.70
2023-05-20T07:36:15.247Z,31.80
2023-05-20T07:39:00.934Z,33.50
2023-05-20T07:41:32.268Z,28.40
2023-05-20T07:44:03.545Z,28.50
2023-05-20T07:46:33.135Z,30.60
2023-05-20T07:49:01.598Z,31.30
2023-05-20T07:51:30.078Z,27.90
2023-05-20T07:53:59.176Z,28.60
2023-05-20T07:56:28.573Z,28.40
2023-05-20T07:58:58.801Z,30.30
2023-05-20T08:01:30.553Z,28.00
2023-05-20T08:03:59.042Z,28.10
2023-05-20T08:06:29.552Z,25.60
2023-05-20T08:08:59.217Z,28.90
2023-05-20T08:11:31.531Z,26.90
2023-05-20T08:14:00.935Z,27.20
2023-05-20T08:16:31.299Z,28.30
2023-05-20T08:18:59.801Z,27.60
2023-05-20T08:21:28.930Z,25.90
2023-05-20T08:23:57.203Z,27.20
2023-05-20T08:26:25.582Z,23.50
2023-05-20T08:28:53.961Z,30.60
2023-05-20T08:31:22.680Z,26.00
2023-05-20T08:33:51.941Z,28.70
2023-05-20T08:36:20.118Z,28.00
2023-05-20T08:38:49.219Z,31.50
2023-05-20T08:41:18.097Z,31.40
2023-05-20T08:43:47.719Z,30.20
2023-05-20T08:46:18.170Z,28.60
2023-05-20T08:48:47.126Z,29.20
2023-05-20T08:51:16.828Z,27.50
2023-05-20T08:53:45.002Z,30.60
2023-05-20T08:56:13.589Z,33.10
2023-05-20T08:58:43.400Z,28.90
2023-05-20T09:01:11.671Z,32.40
2023-05-20T09:03:39.840Z,34.40
2023-05-20T09:06:09.551Z,28.70
2023-05-20T09:08:37.927Z,31.30
2023-05-20T09:11:06.612Z,38.90
2023-05-20T09:13:34.821Z,28.40
2023-05-20T09:16:03.656Z,30.40
2023-05-20T09:18:32.359Z,26.80
2023-05-20T09:21:06.579Z,28.50
2023-05-20T09:23:38.274Z,26.90
2023-05-20T09:26:07.117Z,27.90
2023-05-20T09:28:38.554Z,26.10
2023-05-20T09:31:07.655Z,26.10
2023-05-20T09:33:37.364Z,27.30
2023-05-20T09:36:08.772Z,26.00
2023-05-20T09:38:39.906Z,23.80
2023-05-20T09:41:11.786Z,25.60
2023-05-20T09:43:41.107Z,25.90
2023-05-20T09:46:09.557Z,27.70
2023-05-20T09:48:38.293Z,27.30
2023-05-20T09:51:08.192Z,26.70
2023-05-20T09:53:37.083Z,28.50
2023-05-20T09:56:06.177Z,27.00
2023-05-20T09:58:36.402Z,29.20
2023-05-20T10:01:07.279Z,28.90
2023-05-20T10:03:36.302Z,26.90
2023-05-20T10:06:10.636Z,26.30
2023-05-20T10:08:57.018Z,27.60
2023-05-20T10:11:39.035Z,24.60
2023-05-20T10:14:09.970Z,24.80
2023-05-20T10:16:52.229Z,26.90
2023-05-20T10:19:33.613Z,25.70
2023-05-20T10:22:06.544Z,27.30
2023-05-20T10:24:41.875Z,24.30
2023-05-20T10:27:12.970Z,22.70
2023-05-20T10:29:53.083Z,22.40
2023-05-20T10:32:28.814Z,21.90
2023-05-20T10:35:05.519Z,23.40
2023-05-20T10:37:42.154Z,21.10
2023-05-20T10:40:14.454Z,22.30
2023-05-20T10:42:43.478Z,20.80
2023-05-20T10:45:12.516Z,19.50
2023-05-20T10:47:56.472Z,19.80
2023-05-20T10:50:43.062Z,19.60
2023-05-20T10:53:25.635Z,19.90
2023-05-20T10:56:01.367Z,16.50
2023-05-20T10:58:37.656Z,16.70
2023-05-20T11:01:05.978Z,16.10
2023-05-20T11:03:35.886Z,14.80
2023-05-20T11:06:12.439Z,16.70
2023-05-20T11:08:41.023Z,15.80
2023-05-20T11:11:10.751Z,12.50
2023-05-20T11:16:07.591Z,15.10
2023-05-20T11:18:36.695Z,15.90
2023-05-20T11:21:04.974Z,14.10
2023-05-20T11:23:33.876Z,15.80
2023-05-20T11:26:02.747Z,14.60
2023-05-20T11:28:33.321Z,14.80
2023-05-20T11:31:01.856Z,12.60
2023-05-20T11:33:30.844Z,14.20
2023-05-20T11:35:59.320Z,14.60
2023-05-20T11:38:28.208Z,13.50
2023-05-20T11:40:56.908Z,15.10
2023-05-20T11:43:25.587Z,11.50
2023-05-20T11:45:56.433Z,14.20
2023-05-20T11:48:24.991Z,14.90
2023-05-20T11:50:56.754Z,14.70
2023-05-20T11:53:25.472Z,14.90
2023-05-20T11:55:56.109Z,14.50
2023-05-20T11:58:29.586Z,10.80
2023-05-20T12:01:05.640Z,11.80
2023-05-20T12:03:37.914Z,12.00
2023-05-20T12:06:06.673Z,10.70
2023-05-20T12:08:34.837Z,11.70
2023-05-20T12:11:03.113Z,11.30
2023-05-20T12:13:32.170Z,10.70
2023-05-20T12:16:02.035Z,11.50
2023-05-20T12:18:30.295Z,10.70
2023-05-20T12:21:01.435Z,11.10
2023-05-20T12:23:34.282Z,11.20
2023-05-20T12:26:02.808Z,12.00
2023-05-20T12:28:32.410Z,10.30
2023-05-20T12:31:01.207Z,13.90
2023-05-20T12:33:29.576Z,13.10
2023-05-20T12:35:58.153Z,13.20
2023-05-20T12:38:26.424Z,12.70
2023-05-20T12:40:54.696Z,12.10
2023-05-20T12:43:22.976Z,12.40
2023-05-20T12:45:52.592Z,11.50
2023-05-20T12:50:49.128Z,11.30
2023-05-20T12:53:17.403Z,10.40
2023-05-20T12:55:45.677Z,10.30
2023-05-20T12:58:14.056Z,11.10
2023-05-20T13:00:42.476Z,9.70
2023-05-20T13:03:11.620Z,8.80
2023-05-20T13:08:10.325Z,10.30
2023-05-20T13:10:38.919Z,8.70
2023-05-20T13:13:07.188Z,10.00
2023-05-20T13:15:35.867Z,9.90
2023-05-20T13:18:06.907Z,9.90
2023-05-20T13:20:35.638Z,15.10
2023-05-20T13:23:04.186Z,12.60
2023-05-20T13:25:32.448Z,12.00
2023-05-20T13:28:01.133Z,12.40
2023-05-20T13:30:29.924Z,14.10
2023-05-20T13:32:58.329Z,14.90
2023-05-20T13:35:26.576Z,16.00
2023-05-20T13:37:54.740Z,16.30
2023-05-20T13:40:23.035Z,17.40
2023-05-20T13:42:51.240Z,16.80
2023-05-20T13:45:19.571Z,19.40
2023-05-20T13:47:47.795Z,19.30
2023-05-20T13:50:16.859Z,19.10
2023-05-20T13:52:45.112Z,20.40
2023-05-20T13:55:13.484Z,22.90
2023-05-20T13:57:42.579Z,23.20
2023-05-20T14:00:11.314Z,21.20
2023-05-20T14:02:39.622Z,22.50
2023-05-20T14:05:08.422Z,21.40
2023-05-20T14:07:36.805Z,23.70
2023-05-20T14:10:06.675Z,22.60
2023-05-20T14:12:34.883Z,22.70
2023-05-20T14:15:03.165Z,23.50
2023-05-20T14:17:31.478Z,23.50
2023-05-20T14:20:00.834Z,21.30
2023-05-20T14:22:29.111Z,21.20
2023-05-20T14:24:57.288Z,21.20
2023-05-20T14:27:25.871Z,19.40
2023-05-20T14:29:54.139Z,19.50
2023-05-20T14:32:22.466Z,19.10
2023-05-20T14:34:52.550Z,19.20
2023-05-20T14:37:20.705Z,19.50
2023-05-20T14:39:49.081Z,20.90
2023-05-20T14:42:17.263Z,21.70
2023-05-20T14:44:46.196Z,20.50
2023-05-20T14:47:19.332Z,20.60
2023-05-20T14:49:47.855Z,18.60
2023-05-20T14:52:17.639Z,18.20
2023-05-20T14:54:46.330Z,19.00
2023-05-20T14:57:16.169Z,18.00
2023-05-20T14:59:44.596Z,17.70
2023-05-20T15:02:15.452Z,18.90
2023-05-20T15:04:46.782Z,19.00
2023-05-20T15:07:15.770Z,17.90
2023-05-20T15:09:44.253Z,19.10
2023-05-20T15:12:12.528Z,18.40
2023-05-20T15:14:41.012Z,17.90
2023-05-20T15:17:09.401Z,17.40
2023-05-20T15:19:41.429Z,19.50
2023-05-20T15:22:09.956Z,19.00
2023-05-20T15:24:38.201Z,18.50
2023-05-20T15:27:06.678Z,19.50
2023-05-20T15:29:34.952Z,21.10
2023-05-20T15:32:03.442Z,22.50
2023-05-20T15:34:31.914Z,21.60
2023-05-20T15:37:00.200Z,20.90
2023-05-20T15:39:28.669Z,19.40
2023-05-20T15:41:59.616Z,21.20
2023-05-20T15:44:29.315Z,20.60
2023-05-20T15:46:57.490Z,20.70
2023-05-20T15:49:25.862Z,19.40
2023-05-20T15:52:02.822Z,17.90
2023-05-20T15:54:33.176Z,18.20
2023-05-20T15:57:02.818Z,19.00
2023-05-20T15:59:31.250Z,19.00
2023-05-20T16:01:59.483Z,19.20
2023-05-20T16:04:28.024Z,23.30
2023-05-20T16:06:56.897Z,22.10
2023-05-20T16:09:25.179Z,24.00
2023-05-20T16:11:53.651Z,23.10
2023-05-20T16:14:21.922Z,24.60
2023-05-20T16:16:50.327Z,23.60
2023-05-20T16:19:18.728Z,25.10
2023-05-20T16:21:47.058Z,24.10
2023-05-20T16:24:16.404Z,23.30
2023-05-20T16:26:44.735Z,24.20
2023-05-20T16:29:14.345Z,25.00
2023-05-20T16:31:46.960Z,24.60
2023-05-20T16:34:16.721Z,27.60
2023-05-20T16:36:45.828Z,24.30
2023-05-20T16:39:15.057Z,24.20
2023-05-20T16:41:44.101Z,24.90
2023-05-20T16:44:12.395Z,25.80
2023-05-20T16:46:40.874Z,23.80
2023-05-20T16:49:09.135Z,24.80
2023-05-20T16:51:37.512Z,25.60
2023-05-20T16:54:06.092Z,25.70
2023-05-20T16:56:35.597Z,25.00
2023-05-20T16:59:03.769Z,26.00
2023-05-20T17:01:32.197Z,25.40
2023-05-20T17:04:00.738Z,27.00
2023-05-20T17:06:29.102Z,27.30
2023-05-20T17:08:57.785Z,26.30
2023-05-20T17:11:26.367Z,27.50
2023-05-20T17:13:54.658Z,27.90
2023-05-20T17:16:23.059Z,27.70
2023-05-20T17:18:51.519Z,28.90
2023-05-20T17:21:23.066Z,28.20
2023-05-20T17:23:51.450Z,29.30
2023-05-20T17:26:19.913Z,32.00
2023-05-20T17:28:48.180Z,30.50
2023-05-20T17:31:16.776Z,29.90
2023-05-20T17:33:45.060Z,30.40
2023-05-20T17:36:14.242Z,30.60
2023-05-20T17:38:42.415Z,29.20
2023-05-20T17:41:10.783Z,30.90
2023-05-20T17:43:39.059Z,29.20
2023-05-20T17:46:07.497Z,29.10
2023-05-20T17:48:37.042Z,33.70
2023-05-20T17:51:05.933Z,29.80
2023-05-20T17:53:34.204Z,29.50
2023-05-20T17:56:02.375Z,29.30
2023-05-20T17:58:31.786Z,29.20
2023-05-20T18:01:00.285Z,30.60
2023-05-20T18:03:29.474Z,30.50
2023-05-20T18:05:57.830Z,30.90
2023-05-20T18:08:26.417Z,30.80
2023-05-20T18:10:54.697Z,30.70
2023-05-20T18:13:23.272Z,30.20
2023-05-20T18:15:52.868Z,28.90
2023-05-20T18:18:21.256Z,32.40
2023-05-20T18:20:49.425Z,29.20
2023-05-20T18:23:17.713Z,30.30
2023-05-20T18:25:46.490Z,48.50
2023-05-20T18:28:14.878Z,56.90
2023-05-20T18:30:43.140Z,70.70
2023-05-20T18:33:11.551Z,73.40
2023-05-20T18:35:39.904Z,73.90
2023-05-20T18:38:08.171Z,70.00
2023-05-20T18:40:37.048Z,68.20
2023-05-20T18:43:05.636Z,60.70
2023-05-20T18:45:34.026Z,57.90
2023-05-20T18:48:02.430Z,62.60
2023-05-20T18:50:31.126Z,58.00
2023-05-20T18:52:59.358Z,57.10
2023-05-20T18:55:28.452Z,50.40
2023-05-20T18:57:56.821Z,49.60
2023-05-20T19:00:25.510Z,46.90
2023-05-20T19:02:53.889Z,46.10
2023-05-20T19:05:23.335Z,42.90
2023-05-20T19:07:51.666Z,38.80
2023-05-20T19:10:19.875Z,36.00
2023-05-20T19:12:48.109Z,36.80
2023-05-20T19:15:16.996Z,34.10
2023-05-20T19:17:45.178Z,31.10
2023-05-20T19:20:14.572Z,33.30
2023-05-20T19:22:42.841Z,33.70
2023-05-20T19:25:11.737Z,27.90
2023-05-20T19:27:40.004Z,31.30
2023-05-20T19:30:10.894Z,28.30
2023-05-20T19:32:39.890Z,25.70
2023-05-20T19:35:08.823Z,25.90
2023-05-20T19:37:36.993Z,28.50
2023-05-20T19:40:06.822Z,24.50
2023-05-20T19:42:35.182Z,29.40
2023-05-20T19:45:03.866Z,25.10
2023-05-20T19:47:32.202Z,29.10
2023-05-20T19:50:00.517Z,30.60
2023-05-20T19:52:28.902Z,31.30
2023-05-20T19:54:57.178Z,27.50
2023-05-20T19:57:26.170Z,28.20
2023-05-20T19:59:54.444Z,29.90
2023-05-20T20:02:22.749Z,29.00
2023-05-20T20:04:52.122Z,27.60
2023-05-20T20:07:20.898Z,27.10
2023-05-20T20:09:51.835Z,33.00
2023-05-20T20:12:20.110Z,31.90
2023-05-20T20:14:48.408Z,26.50
2023-05-20T20:17:17.714Z,25.30
2023-05-20T20:19:48.830Z,27.40
2023-05-20T20:22:17.520Z,26.40
2023-05-20T20:24:45.696Z,26.60
2023-05-20T20:27:13.957Z,31.40
2023-05-20T20:29:42.339Z,30.00
2023-05-20T20:32:11.272Z,25.40
2023-05-20T20:34:39.600Z,26.20
2023-05-20T20:37:07.778Z,29.20
2023-05-20T20:39:37.392Z,25.40
2023-05-20T20:42:06.889Z,28.10
2023-05-20T20:44:35.165Z,25.60
2023-05-20T20:47:04.705Z,25.60
2023-05-20T20:49:33.654Z,28.00
2023-05-20T20:52:02.247Z,26.30
2023-05-20T20:54:30.511Z,27.10
2023-05-20T20:57:00.319Z,25.70
2023-05-20T20:59:29.114Z,27.10
2023-05-20T21:01:58.424Z,28.50
2023-05-20T21:04:28.102Z,28.00
2023-05-20T21:06:56.592Z,28.10
2023-05-20T21:09:24.798Z,29.60
2023-05-20T21:11:52.938Z,28.10
2023-05-20T21:14:21.109Z,29.10
2023-05-20T21:16:49.354Z,31.90
2023-05-20T21:19:17.701Z,27.20
2023-05-20T21:21:46.043Z,30.10
2023-05-20T21:24:14.328Z,25.40
2023-05-20T21:26:42.486Z,27.90
2023-05-20T21:29:12.292Z,27.30
2023-05-20T21:31:40.584Z,25.40
2023-05-20T21:34:08.946Z,26.40
2023-05-20T21:36:37.440Z,26.60
2023-05-20T21:39:05.805Z,27.70
2023-05-20T21:41:33.974Z,27.10
2023-05-20T21:44:02.154Z,26.00
2023-05-20T21:46:30.651Z,28.60
2023-05-20T21:48:58.908Z,26.00
2023-05-20T21:51:27.198Z,28.50
2023-05-20T21:53:55.351Z,27.50
2023-05-20T21:56:23.827Z,34.80
2023-05-20T21:58:51.999Z,26.20
2023-05-20T22:01:20.209Z,29.80
2023-05-20T22:03:51.285Z,29.20
2023-05-20T22:06:21.568Z,32.00
2023-05-20T22:08:49.911Z,29.30
2023-05-20T22:11:19.967Z,29.40
2023-05-20T22:13:48.304Z,29.70
2023-05-20T22:16:16.944Z,30.40
2023-05-20T22:18:48.092Z,31.40
2023-05-20T22:21:16.817Z,28.00
2023-05-20T22:23:44.991Z,30.40
2023-05-20T22:26:13.266Z,29.20
2023-05-20T22:28:41.637Z,30.30
2023-05-20T22:31:09.963Z,33.30
2023-05-20T22:33:41.615Z,34.80
2023-05-20T22:36:10.055Z,29.60
2023-05-20T22:38:38.319Z,33.60
2023-05-20T22:41:06.504Z,32.30
2023-05-20T22:43:36.003Z,32.90
2023-05-20T22:46:04.230Z,32.40
2023-05-20T22:48:32.442Z,33.50
2023-05-20T22:51:01.561Z,32.10
2023-05-20T22:53:30.032Z,32.60
2023-05-20T22:56:00.195Z,31.60
2023-05-20T23:00:59.850Z,34.40
2023-05-20T23:03:28.852Z,35.40
2023-05-20T23:05:57.127Z,31.90
2023-05-20T23:08:25.408Z,32.10
2023-05-20T23:10:53.571Z,31.70
2023-05-20T23:13:21.846Z,33.00
2023-05-20T23:15:50.427Z,32.50
2023-05-20T23:18:18.916Z,33.10
2023-05-20T23:20:47.896Z,32.70
2023-05-20T23:23:16.567Z,32.30
2023-05-20T23:25:46.327Z,31.20
2023-05-20T23:28:14.675Z,32.00
2023-05-20T23:30:42.948Z,32.40
2023-05-20T23:33:11.315Z,39.40
2023-05-20T23:35:39.601Z,33.10
2023-05-20T23:38:07.968Z,34.00
2023-05-20T23:40:36.461Z,30.60
2023-05-20T23:43:04.829Z,31.90
2023-05-20T23:45:33.138Z,33.20
2023-05-20T23:48:01.950Z,34.20
2023-05-20T23:50:30.269Z,34.80
2023-05-20T23:52:59.972Z,33.70
2023-05-20T23:55:32.036Z,30.30
2023-05-20T23:58:00.311Z,30.40
